createdAt,value
2018-05-31T00:00:03.767Z,42.47
2018-05-31T00:02:32.229Z,40.20
2018-05-31T00:05:01.200Z,43.33
2018-05-31T00:07:30.608Z,45.27
2018-05-31T00:09:59.064Z,44.63
2018-05-31T00:12:27.754Z,44.47
2018-05-31T00:14:57.203Z,45.93
2018-05-31T00:17:25.663Z,46.63
2018-05-31T00:19:54.120Z,47.13
2018-05-31T00:22:22.710Z,46.43
2018-05-31T00:24:51.347Z,47.33
2018-05-31T00:27:20.587Z,48.50
2018-05-31T00:29:49.044Z,49.13
2018-05-31T00:32:17.495Z,48.93
2018-05-31T00:34:45.947Z,48.13
2018-05-31T00:37:15.353Z,50.40
2018-05-31T00:39:43.814Z,49.90
2018-05-31T00:42:12.267Z,50.00
2018-05-31T00:44:40.740Z,51.40
2018-05-31T00:47:09.222Z,52.57
2018-05-31T00:49:37.671Z,52.73
2018-05-31T00:52:07.086Z,53.77
2018-05-31T00:54:35.798Z,54.40
2018-05-31T00:57:03.919Z,50.27
2018-05-31T00:59:32.565Z,53.33
2018-05-31T01:02:01.903Z,55.30
2018-05-31T01:04:30.384Z,53.30
2018-05-31T01:06:59.378Z,46.77
2018-05-31T01:09:27.830Z,50.53
2018-05-31T01:11:56.513Z,51.90
2018-05-31T01:14:25.167Z,53.20
2018-05-31T01:16:53.615Z,54.83
2018-05-31T01:19:22.084Z,52.77
2018-05-31T01:21:50.745Z,53.77
2018-05-31T01:24:19.422Z,53.23
2018-05-31T01:26:48.074Z,56.33
2018-05-31T01:29:16.699Z,53.97
2018-05-31T01:31:45.311Z,52.83
2018-05-31T01:34:13.428Z,55.67
2018-05-31T01:36:42.073Z,53.87
2018-05-31T01:39:18.011Z,55.13
2018-05-31T01:41:46.481Z,55.57
2018-05-31T01:44:15.122Z,55.93
2018-05-31T01:46:44.578Z,54.90
2018-05-31T01:49:13.211Z,57.07
2018-05-31T01:51:41.678Z,56.80
2018-05-31T01:54:10.288Z,57.60
2018-05-31T01:56:39.687Z,58.07
2018-05-31T01:59:09.099Z,56.57
2018-05-31T02:01:37.568Z,55.17
2018-05-31T02:04:06.026Z,56.00
2018-05-31T02:06:34.545Z,57.20
2018-05-31T02:09:03.100Z,58.97
2018-05-31T02:11:31.752Z,59.80
2018-05-31T02:14:00.247Z,57.10
2018-05-31T02:16:28.771Z,58.67
2018-05-31T02:18:57.800Z,58.10
2018-05-31T02:21:26.247Z,58.90
2018-05-31T02:23:54.710Z,59.90
2018-05-31T02:26:23.963Z,59.03
2018-05-31T02:28:52.422Z,59.07
2018-05-31T02:31:20.871Z,61.67
2018-05-31T02:33:49.510Z,61.73
2018-05-31T02:36:17.971Z,63.37
2018-05-31T02:38:46.768Z,58.77
2018-05-31T02:41:15.224Z,59.20
2018-05-31T02:43:44.442Z,61.07
2018-05-31T02:46:12.898Z,59.20
2018-05-31T02:48:41.565Z,57.87
2018-05-31T02:51:10.488Z,58.27
2018-05-31T02:53:38.945Z,60.03
2018-05-31T02:56:07.643Z,60.70
2018-05-31T02:58:37.859Z,58.50
2018-05-31T03:01:06.347Z,59.07
2018-05-31T03:03:34.807Z,60.03
2018-05-31T03:06:03.425Z,62.23
2018-05-31T03:08:31.882Z,58.33
2018-05-31T03:11:01.276Z,60.57
2018-05-31T03:13:30.382Z,60.03
2018-05-31T03:15:58.840Z,58.53
2018-05-31T03:18:27.351Z,59.80
2018-05-31T03:20:55.935Z,60.20
2018-05-31T03:23:24.568Z,62.70
2018-05-31T03:25:53.231Z,57.53
2018-05-31T03:28:21.698Z,57.37
2018-05-31T03:30:50.145Z,58.13
2018-05-31T03:33:18.807Z,56.23
2018-05-31T03:35:47.527Z,55.93
2018-05-31T03:38:15.984Z,57.83
2018-05-31T03:40:44.428Z,57.20
2018-05-31T03:43:13.774Z,55.83
2018-05-31T03:45:42.224Z,55.10
2018-05-31T03:48:11.622Z,56.10
2018-05-31T03:50:40.070Z,56.80
2018-05-31T03:53:08.724Z,59.97
2018-05-31T03:55:37.368Z,57.63
2018-05-31T03:58:06.583Z,57.77
2018-05-31T04:00:35.247Z,55.97
2018-05-31T04:03:05.367Z,54.47
2018-05-31T04:05:33.815Z,57.97
2018-05-31T04:08:02.282Z,55.47
2018-05-31T04:10:30.920Z,56.57
2018-05-31T04:12:59.275Z,54.87
2018-05-31T04:15:27.864Z,55.50
2018-05-31T04:17:56.507Z,52.83
2018-05-31T04:20:24.963Z,53.20
2018-05-31T04:22:53.413Z,51.03
2018-05-31T04:25:22.046Z,52.60
2018-05-31T04:27:50.505Z,52.23
2018-05-31T04:30:19.130Z,51.60
2018-05-31T04:32:47.613Z,52.13
2018-05-31T04:35:16.066Z,53.30
2018-05-31T04:37:44.710Z,51.40
2018-05-31T04:40:13.352Z,51.53
2018-05-31T04:42:41.803Z,51.80
2018-05-31T04:45:10.246Z,50.33
2018-05-31T04:47:38.702Z,48.47
2018-05-31T04:50:07.348Z,48.63
2018-05-31T04:52:35.800Z,48.13
2018-05-31T04:55:03.922Z,49.20
2018-05-31T04:57:33.159Z,48.67
2018-05-31T05:00:01.722Z,48.00
2018-05-31T05:02:32.763Z,47.40
2018-05-31T05:05:01.255Z,46.00
2018-05-31T05:07:29.855Z,46.67
2018-05-31T05:09:58.386Z,44.17
2018-05-31T05:12:26.863Z,44.53
2018-05-31T05:14:55.351Z,43.57
2018-05-31T05:17:24.574Z,42.93
2018-05-31T05:19:53.035Z,43.23
2018-05-31T05:22:21.491Z,42.87
2018-05-31T05:24:49.951Z,42.27
2018-05-31T05:27:18.404Z,40.30
2018-05-31T05:29:46.863Z,41.27
2018-05-31T05:32:15.120Z,40.53
2018-05-31T05:34:43.578Z,39.73
2018-05-31T05:37:12.030Z,40.17
2018-05-31T05:39:41.438Z,39.03
2018-05-31T05:42:09.898Z,38.23
2018-05-31T05:44:38.526Z,37.13
2018-05-31T05:47:06.979Z,37.93
2018-05-31T05:49:35.432Z,36.87
2018-05-31T05:52:03.406Z,37.63
2018-05-31T05:54:31.858Z,35.40
2018-05-31T05:57:00.314Z,36.27
2018-05-31T05:59:28.787Z,33.23
2018-05-31T06:01:57.219Z,35.53
2018-05-31T06:04:26.682Z,34.83
2018-05-31T06:06:55.311Z,31.90
2018-05-31T06:09:23.762Z,29.97
2018-05-31T06:11:52.224Z,29.97
2018-05-31T06:14:20.685Z,29.10
2018-05-31T06:16:49.326Z,28.57
2018-05-31T06:19:17.775Z,28.13
2018-05-31T06:21:45.887Z,25.80
2018-05-31T06:24:14.347Z,25.93
2018-05-31T06:26:43.759Z,21.67
2018-05-31T06:29:12.394Z,21.10
2018-05-31T06:31:41.659Z,20.57
2018-05-31T06:34:10.108Z,21.30
2018-05-31T06:36:38.562Z,20.67
2018-05-31T06:39:06.339Z,20.43
2018-05-31T06:41:35.367Z,20.27
2018-05-31T06:44:04.042Z,19.37
2018-05-31T06:46:33.056Z,19.17
2018-05-31T06:49:02.076Z,18.98
2018-05-31T06:51:31.107Z,19.48
2018-05-31T06:54:00.128Z,19.17
2018-05-31T06:56:29.151Z,19.70
2018-05-31T06:58:58.681Z,17.48
2018-05-31T07:01:27.702Z,18.12
2018-05-31T07:03:56.715Z,17.27
2018-05-31T07:06:26.701Z,15.65
2018-05-31T07:08:55.748Z,17.08
2018-05-31T07:11:26.171Z,16.25
2018-05-31T07:13:55.179Z,16.73
2018-05-31T07:16:24.184Z,17.62
2018-05-31T07:18:53.200Z,17.58
2018-05-31T07:21:23.025Z,17.27
2018-05-31T07:23:52.036Z,17.73
2018-05-31T07:26:21.060Z,15.63
2018-05-31T07:28:50.067Z,16.50
2018-05-31T07:31:19.082Z,17.17
2018-05-31T07:33:48.098Z,15.57
2018-05-31T07:36:16.779Z,15.68
2018-05-31T07:38:46.026Z,15.70
2018-05-31T07:41:15.174Z,17.17
2018-05-31T07:43:44.182Z,18.67
2018-05-31T07:46:13.183Z,17.95
2018-05-31T07:48:42.242Z,20.02
2018-05-31T07:51:11.280Z,17.25
2018-05-31T07:53:40.303Z,17.85
2018-05-31T07:56:10.075Z,17.00
2018-05-31T07:58:39.111Z,17.40
2018-05-31T08:01:08.131Z,18.95
2018-05-31T08:03:37.551Z,18.30
2018-05-31T08:06:06.582Z,18.45
2018-05-31T08:08:36.357Z,18.65
2018-05-31T08:11:05.840Z,18.30
2018-05-31T08:13:34.653Z,17.30
2018-05-31T08:16:04.676Z,18.27
2018-05-31T08:18:34.355Z,18.67
2018-05-31T08:21:03.366Z,20.25
2018-05-31T08:23:32.891Z,17.67
2018-05-31T08:26:01.642Z,18.95
2018-05-31T08:28:30.679Z,19.87
2018-05-31T08:31:00.225Z,18.12
2018-05-31T08:33:32.159Z,17.62
2018-05-31T08:36:01.210Z,17.12
2018-05-31T08:38:30.395Z,17.05
2018-05-31T08:41:00.235Z,17.70
2018-05-31T08:43:29.249Z,17.23
2018-05-31T08:45:59.323Z,16.23
2018-05-31T08:48:30.128Z,15.60
2018-05-31T08:50:58.556Z,14.98
2018-05-31T08:53:28.798Z,16.08
2018-05-31T08:55:57.828Z,15.82
2018-05-31T08:58:26.803Z,15.95
2018-05-31T09:00:56.103Z,16.85
2018-05-31T09:03:25.119Z,15.45
2018-05-31T09:05:54.678Z,15.43
2018-05-31T09:08:24.866Z,15.43
2018-05-31T09:10:55.703Z,13.95
2018-05-31T09:13:25.248Z,14.00
2018-05-31T09:15:54.266Z,12.70
2018-05-31T09:18:23.553Z,14.48
2018-05-31T09:20:52.578Z,17.60
2018-05-31T09:23:22.680Z,14.05
2018-05-31T09:25:53.283Z,12.18
2018-05-31T09:28:21.791Z,12.73
2018-05-31T09:30:50.798Z,11.75
2018-05-31T09:33:19.810Z,12.45
2018-05-31T09:35:51.741Z,19.85
2018-05-31T09:38:21.607Z,11.88
2018-05-31T09:40:51.179Z,11.63
2018-05-31T09:43:21.188Z,11.63
2018-05-31T09:45:50.747Z,12.77
2018-05-31T09:48:19.922Z,12.03
2018-05-31T09:50:48.691Z,9.33
2018-05-31T09:53:17.598Z,9.47
2018-05-31T09:55:46.051Z,9.67
2018-05-31T09:58:15.693Z,8.53
2018-05-31T10:00:45.564Z,8.97
2018-05-31T10:03:14.924Z,10.27
2018-05-31T10:05:44.411Z,11.33
2018-05-31T10:08:12.544Z,9.40
2018-05-31T10:10:42.819Z,8.90
2018-05-31T10:13:12.712Z,9.87
2018-05-31T10:15:42.634Z,8.97
2018-05-31T10:18:11.848Z,8.43
2018-05-31T10:20:40.363Z,8.60
2018-05-31T10:23:09.025Z,10.07
2018-05-31T10:25:38.863Z,9.50
2018-05-31T10:28:07.422Z,9.50
2018-05-31T10:30:36.647Z,9.20
2018-05-31T10:33:05.620Z,9.93
2018-05-31T10:35:34.091Z,9.20
2018-05-31T10:38:02.603Z,10.50
2018-05-31T10:40:33.200Z,10.77
2018-05-31T10:43:03.036Z,10.40
2018-05-31T10:45:35.300Z,10.40
2018-05-31T10:48:03.748Z,9.70
2018-05-31T10:50:33.739Z,10.03
2018-05-31T10:53:02.182Z,10.33
2018-05-31T10:55:31.472Z,10.10
2018-05-31T10:58:00.864Z,9.80
2018-05-31T11:00:29.148Z,10.40
2018-05-31T11:02:59.198Z,10.47
2018-05-31T11:05:28.162Z,10.60
2018-05-31T11:07:57.784Z,11.70
2018-05-31T11:10:26.770Z,11.10
2018-05-31T11:12:54.663Z,11.27
2018-05-31T11:15:24.010Z,10.80
2018-05-31T11:17:53.319Z,10.37
2018-05-31T11:20:22.227Z,11.47
2018-05-31T11:22:51.581Z,12.03
2018-05-31T11:25:21.089Z,11.07
2018-05-31T11:27:49.722Z,12.30
2018-05-31T11:30:18.174Z,12.10
2018-05-31T11:32:46.620Z,12.60
2018-05-31T11:35:14.739Z,9.63
2018-05-31T11:37:44.002Z,9.50
2018-05-31T11:40:12.453Z,11.00
2018-05-31T11:42:41.313Z,10.17
2018-05-31T11:45:09.477Z,9.70
2018-05-31T11:47:37.938Z,10.37
2018-05-31T11:50:14.916Z,8.60
2018-05-31T11:52:45.025Z,12.67
2018-05-31T11:55:14.091Z,9.57
2018-05-31T11:57:43.903Z,10.10
2018-05-31T12:00:12.369Z,18.30
2018-05-31T12:02:42.708Z,12.23
2018-05-31T12:05:11.155Z,10.37
2018-05-31T12:07:39.865Z,10.03
2018-05-31T12:10:08.535Z,9.63
2018-05-31T12:12:36.979Z,10.03
2018-05-31T12:15:08.323Z,10.43
2018-05-31T12:17:36.788Z,10.90
2018-05-31T12:20:06.257Z,9.10
2018-05-31T12:22:35.559Z,10.20
2018-05-31T12:25:03.681Z,9.60
2018-05-31T12:27:33.397Z,8.50
2018-05-31T12:30:01.839Z,8.70
2018-05-31T12:32:30.724Z,7.93
2018-05-31T12:35:00.966Z,8.43
2018-05-31T12:37:29.559Z,7.90
2018-05-31T12:39:59.390Z,9.10
2018-05-31T12:42:29.328Z,8.03
2018-05-31T12:44:57.775Z,7.73
2018-05-31T12:47:26.700Z,8.60
2018-05-31T12:49:55.151Z,9.03
2018-05-31T12:52:23.665Z,11.33
2018-05-31T12:54:53.068Z,10.07
2018-05-31T12:57:21.534Z,9.33
2018-05-31T12:59:50.138Z,8.67
2018-05-31T13:02:18.704Z,10.00
2018-05-31T13:04:46.584Z,9.37
2018-05-31T13:07:16.182Z,9.40
2018-05-31T13:09:44.695Z,9.67
2018-05-31T13:12:14.063Z,9.53
2018-05-31T13:14:43.016Z,9.33
2018-05-31T13:17:12.317Z,9.87
2018-05-31T13:19:40.763Z,11.87
2018-05-31T13:22:09.983Z,10.27
2018-05-31T13:24:38.464Z,11.27
2018-05-31T13:27:09.774Z,10.60
2018-05-31T13:29:38.266Z,10.03
2018-05-31T13:32:08.513Z,10.13
2018-05-31T13:34:37.083Z,9.80
2018-05-31T13:37:05.586Z,9.30
2018-05-31T13:39:34.780Z,10.53
2018-05-31T13:42:04.140Z,9.80
2018-05-31T13:44:32.919Z,9.27
2018-05-31T13:47:01.395Z,9.93
2018-05-31T13:49:32.168Z,9.63
2018-05-31T13:52:00.606Z,9.47
2018-05-31T13:54:30.105Z,9.33
2018-05-31T13:56:58.604Z,9.30
2018-05-31T13:59:27.820Z,9.67
2018-05-31T14:01:56.271Z,8.63
2018-05-31T14:04:25.259Z,8.80
2018-05-31T14:06:54.371Z,8.20
2018-05-31T14:09:22.863Z,9.13
2018-05-31T14:11:52.407Z,9.47
2018-05-31T14:14:21.595Z,10.50
2018-05-31T14:16:50.657Z,9.30
2018-05-31T14:19:19.134Z,8.27
2018-05-31T14:21:50.071Z,8.20
2018-05-31T14:24:20.787Z,9.27
2018-05-31T14:26:50.097Z,9.90
2018-05-31T14:29:19.762Z,10.10
2018-05-31T14:31:48.228Z,10.47
2018-05-31T14:34:16.861Z,9.90
2018-05-31T14:36:46.845Z,10.60
2018-05-31T14:39:14.975Z,10.13
2018-05-31T14:41:43.456Z,9.67
2018-05-31T14:44:12.470Z,11.73
2018-05-31T14:46:41.935Z,12.13
2018-05-31T14:49:11.528Z,11.87
2018-05-31T14:51:41.299Z,11.60
2018-05-31T14:54:11.251Z,10.07
2018-05-31T14:56:40.043Z,10.57
2018-05-31T14:59:08.179Z,10.60
2018-05-31T15:01:36.877Z,10.07
2018-05-31T15:04:05.070Z,11.17
2018-05-31T15:06:34.993Z,10.27
2018-05-31T15:09:02.875Z,9.80
2018-05-31T15:11:31.335Z,9.27
2018-05-31T15:14:01.207Z,18.53
2018-05-31T15:16:31.920Z,15.57
2018-05-31T15:19:01.376Z,15.70
2018-05-31T15:21:31.326Z,18.73
2018-05-31T15:24:02.352Z,20.02
2018-05-31T15:26:31.723Z,17.13
2018-05-31T15:29:01.027Z,19.93
2018-05-31T15:31:31.043Z,18.20
2018-05-31T15:34:00.951Z,19.87
2018-05-31T15:36:29.371Z,21.03
2018-05-31T15:38:57.255Z,21.13
2018-05-31T15:41:26.206Z,20.90
2018-05-31T15:43:56.359Z,21.20
2018-05-31T15:46:24.823Z,21.00
2018-05-31T15:48:52.977Z,19.77
2018-05-31T15:51:22.400Z,18.87
2018-05-31T15:53:52.436Z,20.93
2018-05-31T15:56:21.615Z,19.97
2018-05-31T15:58:49.479Z,18.70
2018-05-31T16:01:18.764Z,19.80
2018-05-31T16:03:47.839Z,18.73
2018-05-31T16:06:16.116Z,18.57
2018-05-31T16:08:45.029Z,21.03
2018-05-31T16:11:13.466Z,19.23
2018-05-31T16:13:42.725Z,18.10
2018-05-31T16:16:11.667Z,17.87
2018-05-31T16:18:40.499Z,17.63
2018-05-31T16:21:11.965Z,16.53
2018-05-31T16:23:41.327Z,15.90
2018-05-31T16:26:09.831Z,16.13
2018-05-31T16:28:37.808Z,16.00
2018-05-31T16:31:07.535Z,16.47
2018-05-31T16:33:38.219Z,14.33
2018-05-31T16:36:07.768Z,15.20
2018-05-31T16:38:36.215Z,14.60
2018-05-31T16:41:04.683Z,14.23
2018-05-31T16:43:35.247Z,15.47
2018-05-31T16:46:03.359Z,12.10
2018-05-31T16:48:33.751Z,12.37
2018-05-31T16:51:03.274Z,12.27
2018-05-31T16:53:32.146Z,13.03
2018-05-31T16:56:00.787Z,12.30
2018-05-31T16:58:29.318Z,12.07
2018-05-31T17:00:58.071Z,11.70
2018-05-31T17:03:26.894Z,12.30
2018-05-31T17:05:56.391Z,10.97
2018-05-31T17:08:26.143Z,11.77
2018-05-31T17:10:55.627Z,11.33
2018-05-31T17:13:24.841Z,11.70
2018-05-31T17:15:53.304Z,12.23
2018-05-31T17:18:23.387Z,12.00
2018-05-31T17:20:53.735Z,12.20
2018-05-31T17:23:22.206Z,12.47
2018-05-31T17:25:50.691Z,13.20
2018-05-31T17:28:20.195Z,12.80
2018-05-31T17:30:51.524Z,14.23
2018-05-31T17:33:19.980Z,15.67
2018-05-31T17:35:48.432Z,14.13
2018-05-31T17:38:16.871Z,14.40
2018-05-31T17:40:45.365Z,14.93
2018-05-31T17:43:14.668Z,14.93
2018-05-31T17:45:43.461Z,16.87
2018-05-31T17:48:11.913Z,15.27
2018-05-31T17:50:40.389Z,15.10
2018-05-31T17:53:09.157Z,17.23
2018-05-31T17:55:39.491Z,16.77
2018-05-31T17:58:09.331Z,18.53
2018-05-31T18:00:38.723Z,17.93
2018-05-31T18:03:07.207Z,18.93
2018-05-31T18:05:36.284Z,18.53
2018-05-31T18:08:04.219Z,17.90
2018-05-31T18:10:32.687Z,19.60
2018-05-31T18:13:02.154Z,18.90
2018-05-31T18:15:30.355Z,19.37
2018-05-31T18:17:59.434Z,19.37
2018-05-31T18:20:28.759Z,20.13
2018-05-31T18:22:56.887Z,21.37
2018-05-31T18:25:25.942Z,21.20
2018-05-31T18:27:56.013Z,19.63
2018-05-31T18:30:24.915Z,20.03
2018-05-31T18:32:53.847Z,20.47
2018-05-31T18:35:23.495Z,21.23
2018-05-31T18:37:52.683Z,22.10
2018-05-31T18:40:21.851Z,23.40
2018-05-31T18:42:50.004Z,21.27
2018-05-31T18:45:18.442Z,23.07
2018-05-31T18:47:47.414Z,23.60
2018-05-31T18:50:16.855Z,24.57
2018-05-31T18:52:45.643Z,24.20
2018-05-31T18:55:14.111Z,23.27
2018-05-31T18:57:42.627Z,25.80
2018-05-31T19:00:10.748Z,24.33
2018-05-31T19:02:39.965Z,24.90
2018-05-31T19:05:08.411Z,25.37
2018-05-31T19:07:36.850Z,26.53
2018-05-31T19:10:06.029Z,25.53
2018-05-31T19:12:40.932Z,26.07
2018-05-31T19:15:09.431Z,26.13
2018-05-31T19:17:41.307Z,25.57
2018-05-31T19:20:10.556Z,27.93
2018-05-31T19:22:39.975Z,25.23
2018-05-31T19:25:15.195Z,27.07
2018-05-31T19:27:45.299Z,28.20
2018-05-31T19:30:20.314Z,28.67
2018-05-31T19:32:50.572Z,29.43
2018-05-31T19:35:24.518Z,29.23
2018-05-31T19:37:56.228Z,29.37
2018-05-31T19:40:25.787Z,27.97
2018-05-31T19:43:01.476Z,29.47
2018-05-31T19:45:31.059Z,28.93
2018-05-31T19:48:00.805Z,30.43
2018-05-31T19:50:30.811Z,30.83
2018-05-31T19:53:05.251Z,30.50
2018-05-31T19:55:34.598Z,29.87
2018-05-31T19:58:09.787Z,30.27
2018-05-31T20:00:44.926Z,30.57
2018-05-31T20:03:19.136Z,30.77
2018-05-31T20:05:47.583Z,29.80
2018-05-31T20:08:17.424Z,30.23
2018-05-31T20:10:46.417Z,31.10
2018-05-31T20:13:15.839Z,29.87
2018-05-31T20:15:44.712Z,31.43
2018-05-31T20:18:13.770Z,31.67
2018-05-31T20:20:42.939Z,33.03
2018-05-31T20:23:12.741Z,31.10
2018-05-31T20:25:42.504Z,32.90
2018-05-31T20:28:11.613Z,34.73
2018-05-31T20:30:40.757Z,31.70
2018-05-31T20:33:10.439Z,31.33
2018-05-31T20:35:39.219Z,32.00
2018-05-31T20:38:08.547Z,32.73
2018-05-31T20:40:37.994Z,31.80
2018-05-31T20:43:07.475Z,33.23
2018-05-31T20:45:37.192Z,34.30
2018-05-31T20:48:05.689Z,34.13
2018-05-31T20:50:34.158Z,34.60
2018-05-31T20:53:02.269Z,33.23
2018-05-31T20:55:30.475Z,32.83
2018-05-31T20:57:58.597Z,32.60
2018-05-31T21:00:28.684Z,33.20
2018-05-31T21:02:57.235Z,35.27
2018-05-31T21:05:25.462Z,33.43
2018-05-31T21:07:54.879Z,33.53
2018-05-31T21:10:24.433Z,33.47
2018-05-31T21:12:54.195Z,35.60
2018-05-31T21:15:23.344Z,37.43
2018-05-31T21:17:52.387Z,37.57
2018-05-31T21:20:23.843Z,39.07
2018-05-31T21:22:54.162Z,38.10
2018-05-31T21:25:23.890Z,36.20
2018-05-31T21:27:52.351Z,38.63
2018-05-31T21:30:20.912Z,38.30
2018-05-31T21:32:50.691Z,37.10
2018-05-31T21:35:19.564Z,38.60
2018-05-31T21:37:48.812Z,39.07
2018-05-31T21:40:18.311Z,41.23
2018-05-31T21:42:46.820Z,42.30
2018-05-31T21:45:18.408Z,41.10
2018-05-31T21:47:48.063Z,40.37
2018-05-31T21:50:18.993Z,42.70
2018-05-31T21:52:47.467Z,44.13
2018-05-31T21:55:15.914Z,42.70
2018-05-31T21:57:45.381Z,43.73
2018-05-31T22:00:26.379Z,45.43
2018-05-31T22:02:56.270Z,44.43
2018-05-31T22:05:26.694Z,44.97
2018-05-31T22:07:55.160Z,46.53
2018-05-31T22:10:25.440Z,47.33
2018-05-31T22:12:53.335Z,44.50
2018-05-31T22:15:23.143Z,42.40
2018-05-31T22:17:52.766Z,38.50
2018-05-31T22:20:20.940Z,38.30
2018-05-31T22:22:50.220Z,43.27
2018-05-31T22:25:19.887Z,45.13
2018-05-31T22:27:48.574Z,45.83
2018-05-31T22:30:16.840Z,45.73
2018-05-31T22:32:44.991Z,47.43
2018-05-31T22:35:15.291Z,44.03
2018-05-31T22:37:44.741Z,43.23
2018-05-31T22:40:14.545Z,44.73
2018-05-31T22:42:43.476Z,46.10
2018-05-31T22:45:13.791Z,45.80
2018-05-31T22:47:41.944Z,47.20
2018-05-31T22:50:10.692Z,50.13
2018-05-31T22:52:40.502Z,47.77
2018-05-31T22:55:09.471Z,44.97
2018-05-31T22:57:39.195Z,42.83
2018-05-31T23:00:08.634Z,43.90
2018-05-31T23:02:38.254Z,47.27
2018-05-31T23:05:07.463Z,47.10
2018-05-31T23:07:36.267Z,48.00
2018-05-31T23:10:05.103Z,47.53
2018-05-31T23:12:34.806Z,46.70
2018-05-31T23:15:04.523Z,45.97
2018-05-31T23:17:34.096Z,46.73
2018-05-31T23:20:02.269Z,44.23
2018-05-31T23:22:30.967Z,47.17
2018-05-31T23:25:00.471Z,47.50
2018-05-31T23:27:30.772Z,48.30
2018-05-31T23:30:01.206Z,48.90
2018-05-31T23:32:29.685Z,50.30
2018-05-31T23:34:59.059Z,49.67
2018-05-31T23:37:28.552Z,51.97
2018-05-31T23:39:57.724Z,48.60
2018-05-31T23:42:27.935Z,51.20
2018-05-31T23:44:56.611Z,47.57
2018-05-31T23:47:26.287Z,48.27
2018-05-31T23:49:54.167Z,51.00
2018-05-31T23:52:24.108Z,50.47
2018-05-31T23:54:53.582Z,48.07
2018-05-31T23:57:23.266Z,49.93
2018-05-31T23:59:53.330Z,47.80
